createdAt,value
2023-09-17T00:00:46.731Z,1005.53
2023-09-17T00:01:46.793Z,1005.51
2023-09-17T00:02:46.721Z,1005.52
2023-09-17T00:03:46.880Z,1005.54
2023-09-17T00:04:46.691Z,1005.54
2023-09-17T00:05:46.786Z,1005.58
2023-09-17T00:06:46.653Z,1005.54
2023-09-17T00:07:46.722Z,1005.57
2023-09-17T00:08:46.604Z,1005.57
2023-09-17T00:09:46.645Z,1005.56
2023-09-17T00:10:46.680Z,1005.55
2023-09-17T00:11:46.639Z,1005.59
2023-09-17T00:12:46.580Z,1005.57
2023-09-17T00:13:46.593Z,1005.59
2023-09-17T00:14:46.608Z,1005.66
2023-09-17T00:15:46.567Z,1005.65
2023-09-17T00:16:46.770Z,1005.64
2023-09-17T00:17:46.561Z,1005.67
2023-09-17T00:18:46.579Z,1005.67
2023-09-17T00:19:46.620Z,1005.68
2023-09-17T00:20:46.485Z,1005.65
2023-09-17T00:21:46.476Z,1005.65
2023-09-17T00:22:46.501Z,1005.58
2023-09-17T00:23:46.506Z,1005.61
2023-09-17T00:24:46.448Z,1005.55
2023-09-17T00:25:46.458Z,1005.58
2023-09-17T00:26:46.400Z,1005.53
2023-09-17T00:27:46.412Z,1005.55
2023-09-17T00:28:46.459Z,1005.61
2023-09-17T00:29:46.384Z,1005.57
2023-09-17T00:30:46.436Z,1005.59
2023-09-17T00:31:46.442Z,1005.59
2023-09-17T00:32:46.368Z,1005.55
2023-09-17T00:33:46.342Z,1005.59
2023-09-17T00:34:46.357Z,1005.63
2023-09-17T00:35:46.357Z,1005.60
2023-09-17T00:36:46.406Z,1005.60
2023-09-17T00:37:46.385Z,1005.57
2023-09-17T00:38:46.280Z,1005.57
2023-09-17T00:39:46.284Z,1005.54
2023-09-17T00:40:46.302Z,1005.59
2023-09-17T00:41:46.341Z,1005.60
2023-09-17T00:42:46.242Z,1005.61
2023-09-17T00:43:46.338Z,1005.62
2023-09-17T00:44:46.244Z,1005.62
2023-09-17T00:45:46.239Z,1005.64
2023-09-17T00:46:46.310Z,1005.67
2023-09-17T00:47:46.318Z,1005.68
2023-09-17T00:48:46.239Z,1005.65
2023-09-17T00:49:46.253Z,1005.64
2023-09-17T00:50:46.154Z,1005.63
2023-09-17T00:51:46.153Z,1005.66
2023-09-17T00:52:46.223Z,1005.64
2023-09-17T00:53:46.202Z,1005.64
2023-09-17T00:54:46.130Z,1005.62
2023-09-17T00:55:46.161Z,1005.55
2023-09-17T00:56:46.162Z,1005.58
2023-09-17T00:57:46.099Z,1005.56
2023-09-17T00:58:46.099Z,1005.53
2023-09-17T00:59:46.108Z,1005.52
2023-09-17T01:00:46.055Z,1005.48
2023-09-17T01:01:46.149Z,1005.47
2023-09-17T01:02:46.093Z,1005.50
2023-09-17T01:03:46.133Z,1005.49
2023-09-17T01:04:46.030Z,1005.48
2023-09-17T01:05:46.051Z,1005.48
2023-09-17T01:06:46.012Z,1005.46
2023-09-17T01:07:46.070Z,1005.42
2023-09-17T01:08:45.986Z,1005.43
2023-09-17T01:09:46.013Z,1005.41
2023-09-17T01:10:45.992Z,1005.39
2023-09-17T01:11:45.929Z,1005.37
2023-09-17T01:12:45.955Z,1005.40
2023-09-17T01:13:45.948Z,1005.37
2023-09-17T01:14:45.904Z,1005.36
2023-09-17T01:15:46.002Z,1005.35
2023-09-17T01:16:45.953Z,1005.34
2023-09-17T01:17:45.900Z,1005.34
2023-09-17T01:18:45.845Z,1005.33
2023-09-17T01:19:45.907Z,1005.34
2023-09-17T01:20:45.866Z,1005.32
2023-09-17T01:21:45.844Z,1005.29
2023-09-17T01:22:45.955Z,1005.33
2023-09-17T01:23:45.815Z,1005.28
2023-09-17T01:24:45.813Z,1005.33
2023-09-17T01:25:45.837Z,1005.28
2023-09-17T01:26:45.794Z,1005.28
2023-09-17T01:27:45.784Z,1005.26
2023-09-17T01:28:45.824Z,1005.29
2023-09-17T01:29:45.755Z,1005.27
2023-09-17T01:30:45.777Z,1005.25
2023-09-17T01:31:45.757Z,1005.27
2023-09-17T01:32:45.722Z,1005.24
2023-09-17T01:33:45.804Z,1005.28
2023-09-17T01:34:45.727Z,1005.27
2023-09-17T01:35:45.708Z,1005.23
2023-09-17T01:36:45.654Z,1005.21
2023-09-17T01:37:45.711Z,1005.26
2023-09-17T01:38:45.648Z,1005.33
2023-09-17T01:39:45.637Z,1005.30
2023-09-17T01:40:45.642Z,1005.30
2023-09-17T01:41:45.634Z,1005.34
2023-09-17T01:42:45.589Z,1005.35
2023-09-17T01:43:45.898Z,1005.31
2023-09-17T01:44:45.641Z,1005.34
2023-09-17T01:45:45.581Z,1005.35
2023-09-17T01:46:45.622Z,1005.35
2023-09-17T01:47:45.600Z,1005.33
2023-09-17T01:48:45.570Z,1005.32
2023-09-17T01:49:45.639Z,1005.32
2023-09-17T01:50:45.532Z,1005.33
2023-09-17T01:51:45.562Z,1005.30
2023-09-17T01:52:45.516Z,1005.33
2023-09-17T01:53:45.500Z,1005.36
2023-09-17T01:54:45.485Z,1005.36
2023-09-17T01:55:45.534Z,1005.40
2023-09-17T01:56:45.460Z,1005.39
2023-09-17T01:57:45.452Z,1005.38
2023-09-17T01:58:45.460Z,1005.34
2023-09-17T01:59:45.413Z,1005.34
2023-09-17T02:00:45.396Z,1005.30
2023-09-17T02:01:45.485Z,1005.32
2023-09-17T02:02:45.477Z,1005.29
2023-09-17T02:03:45.500Z,1005.26
2023-09-17T02:04:45.366Z,1005.23
2023-09-17T02:05:45.372Z,1005.25
2023-09-17T02:06:45.331Z,1005.22
2023-09-17T02:07:45.511Z,1005.23
2023-09-17T02:08:45.482Z,1005.23
2023-09-17T02:09:45.327Z,1005.21
2023-09-17T02:10:45.302Z,1005.14
2023-09-17T02:11:45.285Z,1005.15
2023-09-17T02:12:45.266Z,1005.12
2023-09-17T02:13:45.299Z,1005.13
2023-09-17T02:14:45.271Z,1005.15
2023-09-17T02:15:45.281Z,1005.19
2023-09-17T02:16:45.227Z,1005.18
2023-09-17T02:17:45.272Z,1005.23
2023-09-17T02:18:45.274Z,1005.20
2023-09-17T02:19:45.603Z,1005.18
2023-09-17T02:20:45.150Z,1005.19
2023-09-17T02:21:45.209Z,1005.24
2023-09-17T02:22:45.246Z,1005.20
2023-09-17T02:23:45.173Z,1005.21
2023-09-17T02:24:45.117Z,1005.26
2023-09-17T02:25:45.207Z,1005.26
2023-09-17T02:26:45.141Z,1005.24
2023-09-17T02:27:45.092Z,1005.20
2023-09-17T02:28:45.090Z,1005.23
2023-09-17T02:29:45.104Z,1005.20
2023-09-17T02:30:45.083Z,1005.27
2023-09-17T02:31:45.112Z,1005.22
2023-09-17T02:32:45.135Z,1005.22
2023-09-17T02:33:45.025Z,1005.25
2023-09-17T02:34:45.049Z,1005.21
2023-09-17T02:35:45.005Z,1005.19
2023-09-17T02:36:45.049Z,1005.22
2023-09-17T02:37:45.073Z,1005.21
2023-09-17T02:38:44.989Z,1005.23
2023-09-17T02:39:45.047Z,1005.22
2023-09-17T02:40:44.993Z,1005.18
2023-09-17T02:41:44.989Z,1005.23
2023-09-17T02:42:44.930Z,1005.21
2023-09-17T02:43:44.973Z,1005.23
2023-09-17T02:44:44.921Z,1005.21
2023-09-17T02:45:44.898Z,1005.23
2023-09-17T02:46:44.903Z,1005.21
2023-09-17T02:47:44.933Z,1005.21
2023-09-17T02:48:44.871Z,1005.24
2023-09-17T02:49:44.901Z,1005.27
2023-09-17T02:50:44.838Z,1005.23
2023-09-17T02:51:44.838Z,1005.27
2023-09-17T02:52:44.911Z,1005.26
2023-09-17T02:53:44.816Z,1005.21
2023-09-17T02:54:44.809Z,1005.25
2023-09-17T02:55:44.891Z,1005.22
2023-09-17T02:56:44.796Z,1005.22
2023-09-17T02:57:44.785Z,1005.22
2023-09-17T02:58:44.795Z,1005.23
2023-09-17T02:59:44.754Z,1005.22
2023-09-17T03:00:44.805Z,1005.23
2023-09-17T03:01:44.767Z,1005.25
2023-09-17T03:02:44.818Z,1005.27
2023-09-17T03:03:44.697Z,1005.29
2023-09-17T03:04:44.790Z,1005.23
2023-09-17T03:05:44.689Z,1005.24
2023-09-17T03:06:44.655Z,1005.22
2023-09-17T03:07:44.711Z,1005.21
2023-09-17T03:08:44.663Z,1005.24
2023-09-17T03:09:44.655Z,1005.22
2023-09-17T03:10:44.882Z,1005.23
2023-09-17T03:11:44.632Z,1005.23
2023-09-17T03:12:44.602Z,1005.21
2023-09-17T03:13:44.656Z,1005.22
2023-09-17T03:14:44.593Z,1005.18
2023-09-17T03:15:44.614Z,1005.22
2023-09-17T03:16:44.743Z,1005.23
2023-09-17T03:17:44.619Z,1005.25
2023-09-17T03:18:44.541Z,1005.23
2023-09-17T03:19:44.586Z,1005.26
2023-09-17T03:20:44.520Z,1005.26
2023-09-17T03:21:44.522Z,1005.29
2023-09-17T03:22:44.537Z,1005.30
2023-09-17T03:23:44.538Z,1005.27
2023-09-17T03:24:51.038Z,1005.32
2023-09-17T03:25:45.506Z,1005.34
2023-09-17T03:26:44.462Z,1005.33
2023-09-17T03:27:44.527Z,1005.34
2023-09-17T03:28:44.551Z,1005.32
2023-09-17T03:29:44.423Z,1005.34
2023-09-17T03:30:44.447Z,1005.33
2023-09-17T03:31:44.469Z,1005.32
2023-09-17T03:32:57.582Z,1005.34
2023-09-17T03:33:45.508Z,1005.31
2023-09-17T03:34:44.401Z,1005.29
2023-09-17T03:35:44.383Z,1005.30
2023-09-17T03:36:44.340Z,1005.24
2023-09-17T03:37:44.392Z,1005.22
2023-09-17T03:38:44.318Z,1005.20
2023-09-17T03:39:44.311Z,1005.21
2023-09-17T03:40:44.319Z,1005.19
2023-09-17T03:41:44.318Z,1005.17
2023-09-17T03:42:44.322Z,1005.13
2023-09-17T03:43:44.362Z,1005.17
2023-09-17T03:44:44.278Z,1005.20
2023-09-17T03:45:44.252Z,1005.17
2023-09-17T03:46:44.355Z,1005.16
2023-09-17T03:47:44.273Z,1005.14
2023-09-17T03:48:44.236Z,1005.13
2023-09-17T03:49:44.274Z,1005.18
2023-09-17T03:50:44.190Z,1005.17
2023-09-17T03:51:44.184Z,1005.16
2023-09-17T03:52:44.206Z,1005.19
2023-09-17T03:53:44.144Z,1005.16
2023-09-17T03:54:44.165Z,1005.18
2023-09-17T03:55:44.179Z,1005.18
2023-09-17T03:56:44.150Z,1005.17
2023-09-17T03:57:44.149Z,1005.17
2023-09-17T03:58:46.047Z,1005.18
2023-09-17T03:59:44.091Z,1005.17
2023-09-17T04:00:44.092Z,1005.15
2023-09-17T04:01:44.121Z,1005.15
2023-09-17T04:02:44.140Z,1005.06
2023-09-17T04:03:44.098Z,1005.05
2023-09-17T04:04:44.072Z,1005.07
2023-09-17T04:05:44.031Z,1005.03
2023-09-17T04:06:44.009Z,1005.04
2023-09-17T04:07:44.120Z,1005.04
2023-09-17T04:08:44.000Z,1005.06
2023-09-17T04:09:43.982Z,1005.01
2023-09-17T04:10:44.025Z,1005.01
2023-09-17T04:11:43.961Z,1005.03
2023-09-17T04:12:44.140Z,1005.03
2023-09-17T04:13:44.061Z,1004.99
2023-09-17T04:14:43.937Z,1005.03
2023-09-17T04:15:43.894Z,1004.98
2023-09-17T04:16:44.003Z,1005.01
2023-09-17T04:17:43.927Z,1005.02
2023-09-17T04:18:43.877Z,1004.99
2023-09-17T04:19:43.903Z,1004.96
2023-09-17T04:20:43.861Z,1004.99
2023-09-17T04:21:43.839Z,1004.96
2023-09-17T04:22:44.210Z,1004.98
2023-09-17T04:23:43.791Z,1005.00
2023-09-17T04:24:43.813Z,1004.97
2023-09-17T04:25:43.869Z,1004.99
2023-09-17T04:26:43.819Z,1005.01
2023-09-17T04:27:43.784Z,1005.01
2023-09-17T04:28:43.821Z,1005.01
2023-09-17T04:29:43.798Z,1005.02
2023-09-17T04:30:43.782Z,1005.04
2023-09-17T04:31:43.799Z,1005.08
2023-09-17T04:32:43.894Z,1005.09
2023-09-17T04:33:43.752Z,1005.08
2023-09-17T04:34:43.905Z,1005.09
2023-09-17T04:35:43.697Z,1005.11
2023-09-17T04:36:43.694Z,1005.10
2023-09-17T04:37:43.706Z,1005.11
2023-09-17T04:38:43.645Z,1005.11
2023-09-17T04:39:43.673Z,1005.05
2023-09-17T04:40:43.702Z,1005.07
2023-09-17T04:41:43.632Z,1005.06
2023-09-17T04:42:43.651Z,1005.01
2023-09-17T04:43:43.697Z,1005.03
2023-09-17T04:44:43.614Z,1005.03
2023-09-17T04:45:43.597Z,1005.06
2023-09-17T04:46:43.626Z,1005.04
2023-09-17T04:47:43.576Z,1005.03
2023-09-17T04:48:43.553Z,1005.05
2023-09-17T04:49:43.564Z,1005.06
2023-09-17T04:50:46.284Z,1005.06
2023-09-17T04:51:43.504Z,1005.06
2023-09-17T04:52:43.577Z,1005.09
2023-09-17T04:53:43.522Z,1005.06
2023-09-17T04:54:43.504Z,1005.09
2023-09-17T04:55:43.576Z,1005.08
2023-09-17T04:56:43.474Z,1005.07
2023-09-17T04:57:43.459Z,1005.06
2023-09-17T04:58:43.497Z,1005.08
2023-09-17T04:59:43.443Z,1005.09
2023-09-17T05:00:43.423Z,1005.05
2023-09-17T05:01:43.447Z,1005.11
2023-09-17T05:02:43.446Z,1005.11
2023-09-17T05:03:43.506Z,1005.16
2023-09-17T05:04:43.390Z,1005.11
2023-09-17T05:05:43.371Z,1005.12
2023-09-17T05:06:43.458Z,1005.16
2023-09-17T05:07:43.384Z,1005.16
2023-09-17T05:08:43.338Z,1005.17
2023-09-17T05:09:43.333Z,1005.14
2023-09-17T05:10:43.344Z,1005.15
2023-09-17T05:11:43.289Z,1005.14
2023-09-17T05:12:43.298Z,1005.15
2023-09-17T05:13:43.291Z,1005.14
2023-09-17T05:14:44.033Z,1005.13
2023-09-17T05:15:43.279Z,1005.17
2023-09-17T05:16:43.404Z,1005.22
2023-09-17T05:17:43.257Z,1005.16
2023-09-17T05:18:43.284Z,1005.18
2023-09-17T05:19:43.209Z,1005.17
2023-09-17T05:20:43.208Z,1005.18
2023-09-17T05:21:43.174Z,1005.16
2023-09-17T05:22:43.199Z,1005.12
2023-09-17T05:23:43.183Z,1005.16
2023-09-17T05:24:43.148Z,1005.12
2023-09-17T05:25:43.182Z,1005.17
2023-09-17T05:26:43.160Z,1005.16
2023-09-17T05:27:43.079Z,1005.15
2023-09-17T05:28:43.242Z,1005.15
2023-09-17T05:29:43.115Z,1005.16
2023-09-17T05:30:43.076Z,1005.22
2023-09-17T05:31:43.168Z,1005.19
2023-09-17T05:32:43.112Z,1005.19
2023-09-17T05:33:43.053Z,1005.19
2023-09-17T05:34:43.076Z,1005.15
2023-09-17T05:35:43.038Z,1005.17
2023-09-17T05:36:43.050Z,1005.17
2023-09-17T05:37:43.036Z,1005.16
2023-09-17T05:38:43.021Z,1005.15
2023-09-17T05:39:51.749Z,1005.15
2023-09-17T05:40:44.991Z,1005.16
2023-09-17T05:41:42.934Z,1005.17
2023-09-17T05:42:42.924Z,1005.19
2023-09-17T05:43:42.950Z,1005.18
2023-09-17T05:44:42.915Z,1005.12
2023-09-17T05:45:42.975Z,1005.18
2023-09-17T05:46:42.915Z,1005.15
2023-09-17T05:47:42.901Z,1005.12
2023-09-17T05:48:42.878Z,1005.11
2023-09-17T05:49:42.888Z,1005.08
2023-09-17T05:50:42.888Z,1005.05
2023-09-17T05:51:42.826Z,1005.07
2023-09-17T05:52:42.868Z,1005.08
2023-09-17T05:53:42.809Z,1005.15
2023-09-17T05:54:42.803Z,1005.13
2023-09-17T05:55:42.814Z,1005.07
2023-09-17T05:56:42.796Z,1005.08
2023-09-17T05:57:42.756Z,1005.05
2023-09-17T05:58:42.798Z,1005.06
2023-09-17T05:59:42.745Z,1005.04
2023-09-17T06:00:42.748Z,1005.00
2023-09-17T06:01:42.827Z,1004.99
2023-09-17T06:02:42.838Z,1005.02
2023-09-17T06:03:42.750Z,1005.05
2023-09-17T06:04:42.722Z,1005.05
2023-09-17T06:05:42.668Z,1005.09
2023-09-17T06:06:42.683Z,1005.07
2023-09-17T06:07:42.729Z,1005.05
2023-09-17T06:08:42.654Z,1005.00
2023-09-17T06:09:42.651Z,1005.01
2023-09-17T06:10:42.660Z,1005.01
2023-09-17T06:11:42.619Z,1005.03
2023-09-17T06:12:42.623Z,1005.07
2023-09-17T06:13:42.616Z,1005.04
2023-09-17T06:14:42.587Z,1005.03
2023-09-17T06:15:42.643Z,1005.00
2023-09-17T06:16:54.681Z,1004.99
2023-09-17T06:17:43.557Z,1004.98
2023-09-17T06:18:42.554Z,1004.94
2023-09-17T06:19:42.559Z,1004.95
2023-09-17T06:20:42.516Z,1004.93
2023-09-17T06:21:42.512Z,1004.89
2023-09-17T06:22:42.521Z,1004.88
2023-09-17T06:23:42.487Z,1004.90
2023-09-17T06:24:42.484Z,1004.89
2023-09-17T06:25:42.450Z,1004.92
2023-09-17T06:26:42.445Z,1004.92
2023-09-17T06:27:42.447Z,1004.91
2023-09-17T06:28:42.469Z,1004.94
2023-09-17T06:29:42.396Z,1004.99
2023-09-17T06:30:42.416Z,1005.02
2023-09-17T06:31:42.402Z,1005.07
2023-09-17T06:32:42.412Z,1005.13
2023-09-17T06:33:42.361Z,1005.07
2023-09-17T06:34:42.372Z,1005.09
2023-09-17T06:35:42.360Z,1005.11
2023-09-17T06:36:42.332Z,1005.11
2023-09-17T06:37:42.356Z,1005.04
2023-09-17T06:38:42.318Z,1005.08
2023-09-17T06:39:42.293Z,1005.12
2023-09-17T06:40:42.332Z,1005.10
2023-09-17T06:41:43.429Z,1005.15
2023-09-17T06:42:42.260Z,1005.20
2023-09-17T06:43:42.292Z,1005.21
2023-09-17T06:44:42.253Z,1005.27
2023-09-17T06:45:42.224Z,1005.20
2023-09-17T06:46:42.453Z,1005.15
2023-09-17T06:47:42.378Z,1005.18
2023-09-17T06:48:43.192Z,1005.17
2023-09-17T06:49:42.198Z,1005.26
2023-09-17T06:50:42.181Z,1005.36
2023-09-17T06:51:42.168Z,1005.40
2023-09-17T06:52:42.191Z,1005.39
2023-09-17T06:53:42.163Z,1005.32
2023-09-17T06:54:42.147Z,1005.28
2023-09-17T06:55:42.160Z,1005.32
2023-09-17T06:56:42.128Z,1005.37
2023-09-17T06:57:42.093Z,1005.33
2023-09-17T06:58:42.112Z,1005.28
2023-09-17T06:59:42.097Z,1005.33
2023-09-17T07:00:42.095Z,1005.30
2023-09-17T07:01:42.076Z,1005.26
2023-09-17T07:02:42.140Z,1005.18
2023-09-17T07:03:42.023Z,1005.12
2023-09-17T07:04:42.069Z,1005.07
2023-09-17T07:05:42.012Z,1005.08
2023-09-17T07:06:42.026Z,1004.99
2023-09-17T07:07:42.009Z,1005.02
2023-09-17T07:08:41.984Z,1004.95
2023-09-17T07:09:41.954Z,1004.95
2023-09-17T07:10:41.977Z,1004.92
2023-09-17T07:11:41.952Z,1005.03
2023-09-17T07:12:41.942Z,1005.01
2023-09-17T07:13:41.932Z,1004.99
2023-09-17T07:14:41.929Z,1005.02
2023-09-17T07:15:41.894Z,1005.00
2023-09-17T07:16:41.947Z,1005.04
2023-09-17T07:17:41.999Z,1005.05
2023-09-17T07:18:41.950Z,1005.06
2023-09-17T07:19:41.901Z,1005.05
2023-09-17T07:20:41.854Z,1004.98
2023-09-17T07:21:41.824Z,1004.99
2023-09-17T07:22:41.852Z,1004.95
2023-09-17T07:23:41.814Z,1004.94
2023-09-17T07:24:41.812Z,1004.98
2023-09-17T07:25:41.821Z,1004.94
2023-09-17T07:26:41.767Z,1004.94
2023-09-17T07:27:41.776Z,1004.89
2023-09-17T07:28:41.766Z,1004.92
2023-09-17T07:29:41.754Z,1004.92
2023-09-17T07:30:41.781Z,1004.93
2023-09-17T07:31:41.745Z,1004.89
2023-09-17T07:32:41.748Z,1004.93
2023-09-17T07:33:41.702Z,1004.93
2023-09-17T07:34:41.734Z,1005.00
2023-09-17T07:35:41.675Z,1004.95
2023-09-17T07:36:41.686Z,1004.97
2023-09-17T07:37:50.615Z,1004.96
2023-09-17T07:38:42.659Z,1005.02
2023-09-17T07:39:41.622Z,1004.98
2023-09-17T07:40:41.649Z,1004.95
2023-09-17T07:41:41.619Z,1004.93
2023-09-17T07:42:41.613Z,1004.94
2023-09-17T07:43:41.657Z,1004.93
2023-09-17T07:44:41.563Z,1004.94
2023-09-17T07:45:41.595Z,1004.97
2023-09-17T07:46:42.651Z,1005.00
2023-09-17T07:47:41.615Z,1005.04
2023-09-17T07:48:41.551Z,1005.05
2023-09-17T07:49:41.633Z,1005.06
2023-09-17T07:50:41.537Z,1005.11
2023-09-17T07:51:41.508Z,1005.10
2023-09-17T07:52:41.547Z,1005.11
2023-09-17T07:53:41.480Z,1005.11
2023-09-17T07:54:41.469Z,1005.11
2023-09-17T07:55:41.498Z,1005.10
2023-09-17T07:56:41.461Z,1005.10
2023-09-17T07:57:41.458Z,1005.13
2023-09-17T07:58:41.516Z,1005.14
2023-09-17T07:59:41.432Z,1005.17
2023-09-17T08:00:41.414Z,1005.19
2023-09-17T08:01:41.513Z,1005.20
2023-09-17T08:02:41.816Z,1005.25
2023-09-17T08:03:41.456Z,1005.17
2023-09-17T08:04:41.424Z,1005.17
2023-09-17T08:05:41.373Z,1005.16
2023-09-17T08:06:41.336Z,1005.15
2023-09-17T08:07:41.457Z,1005.12
2023-09-17T08:08:41.331Z,1005.19
2023-09-17T08:09:41.302Z,1005.25
2023-09-17T08:10:41.374Z,1005.23
2023-09-17T08:11:41.305Z,1005.22
2023-09-17T08:12:41.284Z,1005.18
2023-09-17T08:13:41.370Z,1005.25
2023-09-17T08:14:41.234Z,1005.23
2023-09-17T08:15:41.258Z,1005.25
2023-09-17T08:16:41.371Z,1005.24
2023-09-17T08:17:41.275Z,1005.23
2023-09-17T08:18:41.231Z,1005.25
2023-09-17T08:19:41.238Z,1005.20
2023-09-17T08:20:41.231Z,1005.18
2023-09-17T08:21:41.185Z,1005.18
2023-09-17T08:22:41.235Z,1005.15
2023-09-17T08:23:41.184Z,1005.10
2023-09-17T08:24:41.153Z,1005.09
2023-09-17T08:25:41.162Z,1005.07
2023-09-17T08:26:41.142Z,1005.20
2023-09-17T08:27:41.132Z,1005.21
2023-09-17T08:28:41.109Z,1005.17
2023-09-17T08:29:41.101Z,1005.17
2023-09-17T08:30:41.095Z,1005.12
2023-09-17T08:31:41.094Z,1005.11
2023-09-17T08:32:41.193Z,1005.05
2023-09-17T08:33:41.042Z,1005.03
2023-09-17T08:34:41.120Z,1004.98
2023-09-17T08:35:41.141Z,1004.93
2023-09-17T08:36:41.010Z,1004.97
2023-09-17T08:37:41.021Z,1005.05
2023-09-17T08:38:41.026Z,1005.03
2023-09-17T08:39:40.997Z,1004.98
2023-09-17T08:40:41.026Z,1004.99
2023-09-17T08:41:40.954Z,1004.93
2023-09-17T08:42:40.959Z,1004.87
2023-09-17T08:43:40.987Z,1004.83
2023-09-17T08:44:40.920Z,1004.83
2023-09-17T08:45:40.914Z,1004.86
2023-09-17T08:46:41.038Z,1004.84
2023-09-17T08:47:40.900Z,1004.81
2023-09-17T08:48:40.904Z,1004.79
2023-09-17T08:49:40.939Z,1004.82
2023-09-17T08:50:40.869Z,1004.83
2023-09-17T08:51:40.912Z,1004.80
2023-09-17T08:52:40.906Z,1004.82
2023-09-17T08:53:40.843Z,1004.80
2023-09-17T08:54:40.844Z,1004.80
2023-09-17T08:55:40.888Z,1004.83
2023-09-17T08:56:40.787Z,1004.87
2023-09-17T08:57:40.792Z,1004.90
2023-09-17T08:58:40.829Z,1005.00
2023-09-17T08:59:40.779Z,1005.06
2023-09-17T09:00:40.787Z,1005.02
2023-09-17T09:01:40.820Z,1005.01
2023-09-17T09:02:40.880Z,1005.02
2023-09-17T09:03:40.775Z,1005.01
2023-09-17T09:04:40.734Z,1005.04
2023-09-17T09:05:40.704Z,1004.97
2023-09-17T09:06:40.690Z,1004.92
2023-09-17T09:07:40.692Z,1004.88
2023-09-17T09:08:40.668Z,1004.89
2023-09-17T09:09:40.662Z,1004.80
2023-09-17T09:10:40.666Z,1004.74
2023-09-17T09:11:40.638Z,1004.67
2023-09-17T09:12:40.620Z,1004.69
2023-09-17T09:13:40.688Z,1004.68
2023-09-17T09:14:40.612Z,1004.66
2023-09-17T09:15:40.597Z,1004.70
2023-09-17T09:16:40.643Z,1004.68
2023-09-17T09:17:40.677Z,1004.75
2023-09-17T09:18:40.553Z,1004.76
2023-09-17T09:19:40.607Z,1004.75
2023-09-17T09:20:40.520Z,1004.72
2023-09-17T09:21:40.536Z,1004.71
2023-09-17T09:22:40.656Z,1004.71
2023-09-17T09:23:40.551Z,1004.76
2023-09-17T09:24:40.503Z,1004.74
2023-09-17T09:25:40.568Z,1004.74
2023-09-17T09:26:40.460Z,1004.73
2023-09-17T09:27:40.468Z,1004.75
2023-09-17T09:28:40.443Z,1004.73
2023-09-17T09:29:40.454Z,1004.74
2023-09-17T09:30:40.412Z,1004.78
2023-09-17T09:31:40.412Z,1004.69
2023-09-17T09:32:40.585Z,1004.69
2023-09-17T09:33:40.419Z,1004.69
2023-09-17T09:34:40.414Z,1004.70
2023-09-17T09:35:40.400Z,1004.67
2023-09-17T09:36:40.408Z,1004.74
2023-09-17T09:37:40.377Z,1004.74
2023-09-17T09:38:40.323Z,1004.71
2023-09-17T09:39:40.354Z,1004.71
2023-09-17T09:40:40.337Z,1004.76
2023-09-17T09:41:40.371Z,1004.80
2023-09-17T09:42:40.340Z,1004.79
2023-09-17T09:43:40.321Z,1004.80
2023-09-17T09:44:40.262Z,1004.77
2023-09-17T09:45:40.268Z,1004.70
2023-09-17T09:46:40.273Z,1004.74
2023-09-17T09:47:40.269Z,1004.75
2023-09-17T09:48:40.205Z,1004.69
2023-09-17T09:49:40.259Z,1004.70
2023-09-17T09:50:40.223Z,1004.72
2023-09-17T09:51:40.205Z,1004.72
2023-09-17T09:52:40.214Z,1004.73
2023-09-17T09:53:40.194Z,1004.71
2023-09-17T09:54:40.161Z,1004.67
2023-09-17T09:55:40.155Z,1004.63
2023-09-17T09:56:40.157Z,1004.62
2023-09-17T09:57:41.227Z,1004.57
2023-09-17T09:58:40.126Z,1004.60
2023-09-17T09:59:40.101Z,1004.56
2023-09-17T10:00:40.068Z,1004.51
2023-09-17T10:01:40.209Z,1004.49
2023-09-17T10:02:40.114Z,1004.47
2023-09-17T10:03:40.086Z,1004.45
2023-09-17T10:04:40.185Z,1004.39
2023-09-17T10:05:40.076Z,1004.41
2023-09-17T10:06:40.026Z,1004.37
2023-09-17T10:07:40.080Z,1004.36
2023-09-17T10:08:40.008Z,1004.35
2023-09-17T10:09:40.014Z,1004.31
2023-09-17T10:10:39.999Z,1004.32
2023-09-17T10:11:39.991Z,1004.38
2023-09-17T10:12:39.962Z,1004.34
2023-09-17T10:13:40.075Z,1004.34
2023-09-17T10:14:39.947Z,1004.37
2023-09-17T10:15:40.018Z,1004.36
2023-09-17T10:16:39.976Z,1004.34
2023-09-17T10:17:39.955Z,1004.36
2023-09-17T10:18:39.946Z,1004.42
2023-09-17T10:19:39.915Z,1004.42
2023-09-17T10:20:39.865Z,1004.37
2023-09-17T10:21:39.890Z,1004.40
2023-09-17T10:22:39.856Z,1004.39
2023-09-17T10:23:39.859Z,1004.37
2023-09-17T10:24:40.055Z,1004.32
2023-09-17T10:25:39.903Z,1004.32
2023-09-17T10:26:39.839Z,1004.35
2023-09-17T10:27:39.829Z,1004.33
2023-09-17T10:28:39.815Z,1004.32
2023-09-17T10:29:39.996Z,1004.36
2023-09-17T10:30:39.791Z,1004.35
2023-09-17T10:31:39.881Z,1004.34
2023-09-17T10:32:39.844Z,1004.34
2023-09-17T10:33:39.771Z,1004.33
2023-09-17T10:34:39.742Z,1004.35
2023-09-17T10:35:39.756Z,1004.32
2023-09-17T10:36:39.701Z,1004.33
2023-09-17T10:37:39.710Z,1004.28
2023-09-17T10:38:39.757Z,1004.31
2023-09-17T10:39:39.701Z,1004.29
2023-09-17T10:40:39.761Z,1004.28
2023-09-17T10:41:39.654Z,1004.32
2023-09-17T10:42:39.665Z,1004.31
2023-09-17T10:43:39.662Z,1004.30
2023-09-17T10:44:39.628Z,1004.32
2023-09-17T10:45:39.612Z,1004.28
2023-09-17T10:46:39.868Z,1004.29
2023-09-17T10:47:39.647Z,1004.32
2023-09-17T10:48:39.570Z,1004.27
2023-09-17T10:49:39.590Z,1004.24
2023-09-17T10:50:39.545Z,1004.16
2023-09-17T10:51:39.562Z,1004.17
2023-09-17T10:52:39.559Z,1004.23
2023-09-17T10:53:39.519Z,1004.19
2023-09-17T10:54:39.510Z,1004.18
2023-09-17T10:55:39.552Z,1004.22
2023-09-17T10:56:39.484Z,1004.18
2023-09-17T10:57:39.464Z,1004.20
2023-09-17T10:58:39.494Z,1004.22
2023-09-17T10:59:39.749Z,1004.20
2023-09-17T11:00:39.512Z,1004.21
2023-09-17T11:01:39.449Z,1004.20
2023-09-17T11:02:39.515Z,1004.18
2023-09-17T11:03:39.582Z,1004.15
2023-09-17T11:04:39.410Z,1004.15
2023-09-17T11:05:39.402Z,1004.12
2023-09-17T11:06:39.370Z,1004.12
2023-09-17T11:07:39.402Z,1004.15
2023-09-17T11:08:39.346Z,1004.12
2023-09-17T11:09:39.349Z,1004.08
2023-09-17T11:10:39.360Z,1004.12
2023-09-17T11:11:39.331Z,1004.09
2023-09-17T11:12:39.310Z,1004.09
2023-09-17T11:13:39.349Z,1004.09
2023-09-17T11:14:39.294Z,1004.10
2023-09-17T11:15:39.286Z,1004.10
2023-09-17T11:16:39.337Z,1004.04
2023-09-17T11:17:39.336Z,1004.10
2023-09-17T11:18:39.245Z,1004.11
2023-09-17T11:19:39.293Z,1004.06
2023-09-17T11:20:39.216Z,1004.05
2023-09-17T11:21:39.235Z,1004.03
2023-09-17T11:22:39.236Z,1004.03
2023-09-17T11:23:39.199Z,1004.05
2023-09-17T11:24:39.218Z,1004.02
2023-09-17T11:25:39.252Z,1004.03
2023-09-17T11:26:40.318Z,1004.03
2023-09-17T11:27:39.169Z,1004.05
2023-09-17T11:28:39.178Z,1004.03
2023-09-17T11:29:39.156Z,1004.05
2023-09-17T11:30:40.152Z,1004.01
2023-09-17T11:31:39.159Z,1004.03
2023-09-17T11:32:39.114Z,1004.00
2023-09-17T11:33:39.115Z,1004.01
2023-09-17T11:34:39.123Z,1004.00
2023-09-17T11:35:39.114Z,1003.98
2023-09-17T11:36:39.060Z,1003.97
2023-09-17T11:37:39.081Z,1004.01
2023-09-17T11:38:39.056Z,1003.96
2023-09-17T11:39:39.047Z,1003.96
2023-09-17T11:40:39.091Z,1003.88
2023-09-17T11:41:39.032Z,1003.92
2023-09-17T11:42:39.002Z,1003.91
2023-09-17T11:43:39.071Z,1003.82
2023-09-17T11:44:39.000Z,1003.90
2023-09-17T11:45:39.007Z,1003.94
2023-09-17T11:46:39.040Z,1003.96
2023-09-17T11:47:38.967Z,1003.90
2023-09-17T11:48:39.019Z,1003.92
2023-09-17T11:49:39.024Z,1003.93
2023-09-17T11:50:38.940Z,1003.87
2023-09-17T11:51:38.910Z,1003.87
2023-09-17T11:52:38.974Z,1003.86
2023-09-17T11:53:40.996Z,1003.86
2023-09-17T11:54:38.897Z,1003.90
2023-09-17T11:55:38.899Z,1003.98
2023-09-17T11:56:38.874Z,1003.86
2023-09-17T11:57:38.946Z,1003.86
2023-09-17T11:58:38.881Z,1003.85
2023-09-17T11:59:38.887Z,1003.88
2023-09-17T12:00:38.849Z,1003.82
2023-09-17T12:01:38.938Z,1003.76
2023-09-17T12:02:38.916Z,1003.77
2023-09-17T12:03:38.868Z,1003.79
2023-09-17T12:04:39.250Z,1003.76
2023-09-17T12:05:38.802Z,1003.77